sensor_id;sensor_type;location;lat;lon;timestamp;P1;durP1;ratioP1;P2;durP2;ratioP2
11039;SDS011;5573;49.592;8.662;2023-07-16T00:01:42;333.50;;;316.33;;
11039;SDS011;5573;49.592;8.662;2023-07-16T00:04:10;312.88;;;296.25;;
11039;SDS011;5573;49.592;8.662;2023-07-16T00:06:38;344.17;;;325.95;;
11039;SDS011;5573;49.592;8.662;2023-07-16T00:09:05;325.48;;;308.45;;
11039;SDS011;5573;49.592;8.662;2023-07-16T00:11:34;329.52;;;312.40;;
11039;SDS011;5573;49.592;8.662;2023-07-16T00:14:01;321.85;;;305.10;;
11039;SDS011;5573;49.592;8.662;2023-07-16T00:16:30;313.60;;;297.08;;
11039;SDS011;5573;49.592;8.662;2023-07-16T00:18:59;316.35;;;299.48;;
11039;SDS011;5573;49.592;8.662;2023-07-16T00:21:27;317.90;;;301.30;;
11039;SDS011;5573;49.592;8.662;2023-07-16T00:23:55;311.35;;;295.02;;
11039;SDS011;5573;49.592;8.662;2023-07-16T00:26:23;318.08;;;301.17;;
11039;SDS011;5573;49.592;8.662;2023-07-16T00:28:51;307.58;;;291.40;;
11039;SDS011;5573;49.592;8.662;2023-07-16T00:31:19;320.05;;;303.38;;
11039;SDS011;5573;49.592;8.662;2023-07-16T00:33:47;324.35;;;307.10;;
11039;SDS011;5573;49.592;8.662;2023-07-16T00:36:16;335.52;;;317.88;;
11039;SDS011;5573;49.592;8.662;2023-07-16T00:38:44;335.90;;;318.05;;
11039;SDS011;5573;49.592;8.662;2023-07-16T00:41:12;332.73;;;315.02;;
11039;SDS011;5573;49.592;8.662;2023-07-16T00:43:41;334.30;;;316.70;;
11039;SDS011;5573;49.592;8.662;2023-07-16T00:46:09;329.48;;;312.05;;
11039;SDS011;5573;49.592;8.662;2023-07-16T00:48:40;339.35;;;321.15;;
11039;SDS011;5573;49.592;8.662;2023-07-16T00:51:09;351.85;;;333.02;;
11039;SDS011;5573;49.592;8.662;2023-07-16T00:53:39;346.70;;;328.48;;
11039;SDS011;5573;49.592;8.662;2023-07-16T00:56:09;351.77;;;333.00;;
11039;SDS011;5573;49.592;8.662;2023-07-16T00:58:38;329.38;;;312.13;;
11039;SDS011;5573;49.592;8.662;2023-07-16T01:01:06;357.98;;;339.13;;
11039;SDS011;5573;49.592;8.662;2023-07-16T01:03:34;339.70;;;322.02;;
11039;SDS011;5573;49.592;8.662;2023-07-16T01:06:04;345.00;;;326.63;;
11039;SDS011;5573;49.592;8.662;2023-07-16T01:08:40;341.98;;;323.98;;
11039;SDS011;5573;49.592;8.662;2023-07-16T01:11:10;329.23;;;311.58;;
11039;SDS011;5573;49.592;8.662;2023-07-16T01:13:38;345.80;;;327.70;;
11039;SDS011;5573;49.592;8.662;2023-07-16T01:16:17;342.35;;;323.77;;
11039;SDS011;5573;49.592;8.662;2023-07-16T01:18:46;337.70;;;319.67;;
11039;SDS011;5573;49.592;8.662;2023-07-16T01:21:13;339.42;;;321.20;;
11039;SDS011;5573;49.592;8.662;2023-07-16T01:23:59;342.45;;;324.30;;
11039;SDS011;5573;49.592;8.662;2023-07-16T01:26:35;310.80;;;294.23;;
11039;SDS011;5573;49.592;8.662;2023-07-16T01:29:28;340.17;;;322.20;;
11039;SDS011;5573;49.592;8.662;2023-07-16T01:31:56;327.10;;;309.70;;
11039;SDS011;5573;49.592;8.662;2023-07-16T01:34:28;328.45;;;311.30;;
11039;SDS011;5573;49.592;8.662;2023-07-16T01:36:59;332.30;;;315.00;;
11039;SDS011;5573;49.592;8.662;2023-07-16T01:39:28;314.75;;;298.40;;
11039;SDS011;5573;49.592;8.662;2023-07-16T01:41:56;334.42;;;316.80;;
11039;SDS011;5573;49.592;8.662;2023-07-16T01:44:24;344.92;;;326.67;;
11039;SDS011;5573;49.592;8.662;2023-07-16T01:46:59;328.40;;;311.33;;
11039;SDS011;5573;49.592;8.662;2023-07-16T01:49:33;324.02;;;306.85;;
11039;SDS011;5573;49.592;8.662;2023-07-16T01:52:01;310.08;;;293.83;;
11039;SDS011;5573;49.592;8.662;2023-07-16T01:54:32;317.50;;;301.02;;
11039;SDS011;5573;49.592;8.662;2023-07-16T01:57:00;337.33;;;319.75;;
11039;SDS011;5573;49.592;8.662;2023-07-16T01:59:28;314.95;;;298.30;;
11039;SDS011;5573;49.592;8.662;2023-07-16T02:01:57;310.52;;;294.05;;
11039;SDS011;5573;49.592;8.662;2023-07-16T02:04:25;326.55;;;309.67;;
11039;SDS011;5573;49.592;8.662;2023-07-16T02:06:53;317.80;;;301.02;;
11039;SDS011;5573;49.592;8.662;2023-07-16T02:09:21;315.08;;;298.83;;
11039;SDS011;5573;49.592;8.662;2023-07-16T02:11:51;315.27;;;298.75;;
11039;SDS011;5573;49.592;8.662;2023-07-16T02:14:19;309.55;;;293.38;;
11039;SDS011;5573;49.592;8.662;2023-07-16T02:16:47;318.85;;;301.85;;
11039;SDS011;5573;49.592;8.662;2023-07-16T02:19:16;314.20;;;297.75;;
11039;SDS011;5573;49.592;8.662;2023-07-16T02:21:44;305.05;;;289.17;;
11039;SDS011;5573;49.592;8.662;2023-07-16T02:24:12;314.42;;;297.85;;
11039;SDS011;5573;49.592;8.662;2023-07-16T02:26:40;321.27;;;304.30;;
11039;SDS011;5573;49.592;8.662;2023-07-16T02:29:10;288.63;;;273.75;;
11039;SDS011;5573;49.592;8.662;2023-07-16T02:31:38;284.42;;;269.80;;
11039;SDS011;5573;49.592;8.662;2023-07-16T02:34:08;295.50;;;280.40;;
11039;SDS011;5573;49.592;8.662;2023-07-16T02:36:37;291.40;;;276.38;;
11039;SDS011;5573;49.592;8.662;2023-07-16T02:39:05;285.73;;;270.92;;
11039;SDS011;5573;49.592;8.662;2023-07-16T02:41:33;295.02;;;279.58;;
11039;SDS011;5573;49.592;8.662;2023-07-16T02:44:01;284.45;;;269.67;;
11039;SDS011;5573;49.592;8.662;2023-07-16T02:46:31;287.80;;;272.95;;
11039;SDS011;5573;49.592;8.662;2023-07-16T02:48:59;269.65;;;255.70;;
11039;SDS011;5573;49.592;8.662;2023-07-16T02:51:27;272.77;;;258.73;;
11039;SDS011;5573;49.592;8.662;2023-07-16T02:53:56;290.40;;;275.27;;
11039;SDS011;5573;49.592;8.662;2023-07-16T02:56:24;258.95;;;245.52;;
11039;SDS011;5573;49.592;8.662;2023-07-16T02:58:51;265.23;;;251.63;;
11039;SDS011;5573;49.592;8.662;2023-07-16T03:01:19;257.17;;;243.85;;
11039;SDS011;5573;49.592;8.662;2023-07-16T03:03:47;254.15;;;240.82;;
11039;SDS011;5573;49.592;8.662;2023-07-16T03:06:15;259.15;;;245.85;;
11039;SDS011;5573;49.592;8.662;2023-07-16T03:08:50;275.75;;;261.58;;
11039;SDS011;5573;49.592;8.662;2023-07-16T03:11:19;250.85;;;238.23;;
11039;SDS011;5573;49.592;8.662;2023-07-16T03:13:46;269.60;;;255.68;;
11039;SDS011;5573;49.592;8.662;2023-07-16T03:16:14;253.77;;;240.77;;
11039;SDS011;5573;49.592;8.662;2023-07-16T03:18:43;283.70;;;268.85;;
11039;SDS011;5573;49.592;8.662;2023-07-16T03:21:11;262.65;;;249.18;;
11039;SDS011;5573;49.592;8.662;2023-07-16T03:23:39;256.92;;;243.77;;
11039;SDS011;5573;49.592;8.662;2023-07-16T03:26:07;258.55;;;244.77;;
11039;SDS011;5573;49.592;8.662;2023-07-16T03:28:36;277.88;;;263.42;;
11039;SDS011;5573;49.592;8.662;2023-07-16T03:31:06;263.38;;;249.88;;
11039;SDS011;5573;49.592;8.662;2023-07-16T03:33:36;274.05;;;260.05;;
11039;SDS011;5573;49.592;8.662;2023-07-16T03:36:06;251.88;;;238.95;;
11039;SDS011;5573;49.592;8.662;2023-07-16T03:38:34;260.65;;;247.27;;
11039;SDS011;5573;49.592;8.662;2023-07-16T03:41:02;253.63;;;240.38;;
11039;SDS011;5573;49.592;8.662;2023-07-16T03:43:31;264.48;;;250.73;;
11039;SDS011;5573;49.592;8.662;2023-07-16T03:46:11;255.63;;;242.35;;
11039;SDS011;5573;49.592;8.662;2023-07-16T03:48:40;260.23;;;246.82;;
11039;SDS011;5573;49.592;8.662;2023-07-16T03:51:08;238.57;;;226.23;;
11039;SDS011;5573;49.592;8.662;2023-07-16T03:53:36;255.25;;;241.98;;
11039;SDS011;5573;49.592;8.662;2023-07-16T03:56:04;257.80;;;244.48;;
11039;SDS011;5573;49.592;8.662;2023-07-16T03:58:34;254.35;;;241.45;;
11039;SDS011;5573;49.592;8.662;2023-07-16T04:01:04;251.18;;;238.23;;
11039;SDS011;5573;49.592;8.662;2023-07-16T04:03:33;234.88;;;222.75;;
11039;SDS011;5573;49.592;8.662;2023-07-16T04:06:02;231.98;;;219.80;;
11039;SDS011;5573;49.592;8.662;2023-07-16T04:08:31;233.13;;;221.02;;
11039;SDS011;5573;49.592;8.662;2023-07-16T04:10:58;239.82;;;227.27;;
11039;SDS011;5573;49.592;8.662;2023-07-16T04:13:26;230.65;;;218.60;;
11039;SDS011;5573;49.592;8.662;2023-07-16T04:15:54;216.90;;;205.45;;
11039;SDS011;5573;49.592;8.662;2023-07-16T04:18:24;237.00;;;224.82;;
11039;SDS011;5573;49.592;8.662;2023-07-16T04:20:53;239.07;;;226.43;;
11039;SDS011;5573;49.592;8.662;2023-07-16T04:23:21;225.82;;;213.82;;
11039;SDS011;5573;49.592;8.662;2023-07-16T04:25:51;236.80;;;224.43;;
11039;SDS011;5573;49.592;8.662;2023-07-16T04:28:19;227.60;;;215.70;;
11039;SDS011;5573;49.592;8.662;2023-07-16T04:30:47;217.25;;;205.88;;
11039;SDS011;5573;49.592;8.662;2023-07-16T04:33:15;235.05;;;222.90;;
11039;SDS011;5573;49.592;8.662;2023-07-16T04:35:43;246.32;;;233.70;;
11039;SDS011;5573;49.592;8.662;2023-07-16T04:38:12;237.10;;;224.80;;
11039;SDS011;5573;49.592;8.662;2023-07-16T04:40:41;234.35;;;222.20;;
11039;SDS011;5573;49.592;8.662;2023-07-16T04:43:10;231.45;;;219.45;;
11039;SDS011;5573;49.592;8.662;2023-07-16T04:45:37;211.55;;;200.60;;
11039;SDS011;5573;49.592;8.662;2023-07-16T04:48:06;253.65;;;240.55;;
11039;SDS011;5573;49.592;8.662;2023-07-16T04:50:34;221.63;;;210.18;;
11039;SDS011;5573;49.592;8.662;2023-07-16T04:53:02;225.27;;;213.65;;
11039;SDS011;5573;49.592;8.662;2023-07-16T04:55:35;208.13;;;197.05;;
11039;SDS011;5573;49.592;8.662;2023-07-16T04:58:04;224.93;;;213.18;;
11039;SDS011;5573;49.592;8.662;2023-07-16T05:00:32;227.60;;;215.98;;
11039;SDS011;5573;49.592;8.662;2023-07-16T05:03:00;221.55;;;210.05;;
11039;SDS011;5573;49.592;8.662;2023-07-16T05:05:28;221.75;;;210.18;;
11039;SDS011;5573;49.592;8.662;2023-07-16T05:07:56;225.50;;;213.77;;
11039;SDS011;5573;49.592;8.662;2023-07-16T05:10:24;231.13;;;219.20;;
11039;SDS011;5573;49.592;8.662;2023-07-16T05:12:53;228.85;;;216.98;;
11039;SDS011;5573;49.592;8.662;2023-07-16T05:15:21;231.32;;;219.38;;
11039;SDS011;5573;49.592;8.662;2023-07-16T05:17:49;246.13;;;233.35;;
11039;SDS011;5573;49.592;8.662;2023-07-16T05:20:17;224.30;;;212.52;;
11039;SDS011;5573;49.592;8.662;2023-07-16T05:22:46;223.60;;;211.98;;
11039;SDS011;5573;49.592;8.662;2023-07-16T05:25:14;212.55;;;201.43;;
11039;SDS011;5573;49.592;8.662;2023-07-16T05:27:42;227.50;;;215.55;;
11039;SDS011;5573;49.592;8.662;2023-07-16T05:30:12;226.88;;;215.07;;
11039;SDS011;5573;49.592;8.662;2023-07-16T05:32:40;223.13;;;211.18;;
11039;SDS011;5573;49.592;8.662;2023-07-16T05:35:08;224.23;;;212.27;;
11039;SDS011;5573;49.592;8.662;2023-07-16T05:37:36;212.55;;;201.25;;
11039;SDS011;5573;49.592;8.662;2023-07-16T05:40:05;235.52;;;223.20;;
11039;SDS011;5573;49.592;8.662;2023-07-16T05:42:35;210.57;;;199.40;;
11039;SDS011;5573;49.592;8.662;2023-07-16T05:45:03;215.45;;;204.02;;
11039;SDS011;5573;49.592;8.662;2023-07-16T05:47:32;210.50;;;199.23;;
11039;SDS011;5573;49.592;8.662;2023-07-16T05:50:01;194.15;;;183.63;;
11039;SDS011;5573;49.592;8.662;2023-07-16T05:52:29;205.20;;;194.32;;
11039;SDS011;5573;49.592;8.662;2023-07-16T05:54:58;201.60;;;190.85;;
11039;SDS011;5573;49.592;8.662;2023-07-16T05:57:26;194.25;;;184.02;;
11039;SDS011;5573;49.592;8.662;2023-07-16T05:59:53;197.07;;;186.65;;
11039;SDS011;5573;49.592;8.662;2023-07-16T06:02:22;188.95;;;179.00;;
11039;SDS011;5573;49.592;8.662;2023-07-16T06:04:51;199.93;;;189.45;;
11039;SDS011;5573;49.592;8.662;2023-07-16T06:07:19;183.02;;;173.30;;
11039;SDS011;5573;49.592;8.662;2023-07-16T06:09:47;210.55;;;199.60;;
11039;SDS011;5573;49.592;8.662;2023-07-16T06:12:14;207.75;;;196.65;;
11039;SDS011;5573;49.592;8.662;2023-07-16T06:14:42;191.40;;;181.40;;
11039;SDS011;5573;49.592;8.662;2023-07-16T06:17:10;184.57;;;175.00;;
11039;SDS011;5573;49.592;8.662;2023-07-16T06:19:38;191.75;;;181.57;;
11039;SDS011;5573;49.592;8.662;2023-07-16T06:22:07;197.25;;;187.05;;
11039;SDS011;5573;49.592;8.662;2023-07-16T06:24:35;191.50;;;181.45;;
11039;SDS011;5573;49.592;8.662;2023-07-16T06:27:03;197.45;;;187.27;;
11039;SDS011;5573;49.592;8.662;2023-07-16T06:29:32;212.27;;;201.35;;
11039;SDS011;5573;49.592;8.662;2023-07-16T06:32:00;206.65;;;195.90;;
11039;SDS011;5573;49.592;8.662;2023-07-16T06:34:29;217.10;;;205.63;;
11039;SDS011;5573;49.592;8.662;2023-07-16T06:36:57;223.40;;;211.80;;
11039;SDS011;5573;49.592;8.662;2023-07-16T06:39:26;218.93;;;207.60;;
11039;SDS011;5573;49.592;8.662;2023-07-16T06:41:54;241.07;;;228.27;;
11039;SDS011;5573;49.592;8.662;2023-07-16T06:44:22;253.75;;;240.63;;
11039;SDS011;5573;49.592;8.662;2023-07-16T06:46:50;253.70;;;240.32;;
11039;SDS011;5573;49.592;8.662;2023-07-16T06:49:18;275.55;;;261.33;;
11039;SDS011;5573;49.592;8.662;2023-07-16T06:51:45;295.45;;;279.92;;
11039;SDS011;5573;49.592;8.662;2023-07-16T06:54:14;307.00;;;291.35;;
11039;SDS011;5573;49.592;8.662;2023-07-16T06:56:43;302.90;;;287.42;;
11039;SDS011;5573;49.592;8.662;2023-07-16T06:59:11;300.08;;;284.88;;
11039;SDS011;5573;49.592;8.662;2023-07-16T07:01:38;308.17;;;292.48;;
11039;SDS011;5573;49.592;8.662;2023-07-16T07:04:06;287.27;;;272.77;;
11039;SDS011;5573;49.592;8.662;2023-07-16T07:06:34;240.90;;;228.75;;
11039;SDS011;5573;49.592;8.662;2023-07-16T07:09:02;180.43;;;171.05;;
11039;SDS011;5573;49.592;8.662;2023-07-16T07:11:31;160.52;;;152.05;;
11039;SDS011;5573;49.592;8.662;2023-07-16T07:14:00;154.20;;;146.23;;
11039;SDS011;5573;49.592;8.662;2023-07-16T07:16:28;190.15;;;180.55;;
11039;SDS011;5573;49.592;8.662;2023-07-16T07:18:56;215.98;;;204.82;;
11039;SDS011;5573;49.592;8.662;2023-07-16T07:21:24;218.75;;;207.50;;
11039;SDS011;5573;49.592;8.662;2023-07-16T07:23:52;187.38;;;177.73;;
11039;SDS011;5573;49.592;8.662;2023-07-16T07:26:20;207.60;;;196.98;;
11039;SDS011;5573;49.592;8.662;2023-07-16T07:28:47;246.52;;;233.75;;
11039;SDS011;5573;49.592;8.662;2023-07-16T07:31:17;218.20;;;207.10;;
11039;SDS011;5573;49.592;8.662;2023-07-16T07:33:45;210.30;;;199.65;;
11039;SDS011;5573;49.592;8.662;2023-07-16T07:36:12;189.70;;;179.98;;
11039;SDS011;5573;49.592;8.662;2023-07-16T07:38:40;159.88;;;151.55;;
11039;SDS011;5573;49.592;8.662;2023-07-16T07:41:08;161.07;;;152.75;;
11039;SDS011;5573;49.592;8.662;2023-07-16T07:43:36;157.63;;;149.48;;
11039;SDS011;5573;49.592;8.662;2023-07-16T07:46:04;167.30;;;158.73;;
11039;SDS011;5573;49.592;8.662;2023-07-16T07:48:33;151.55;;;143.77;;
11039;SDS011;5573;49.592;8.662;2023-07-16T07:51:01;150.18;;;142.43;;
11039;SDS011;5573;49.592;8.662;2023-07-16T07:53:29;140.07;;;132.82;;
11039;SDS011;5573;49.592;8.662;2023-07-16T07:55:57;142.52;;;135.15;;
11039;SDS011;5573;49.592;8.662;2023-07-16T07:58:25;148.98;;;141.32;;
11039;SDS011;5573;49.592;8.662;2023-07-16T08:00:53;146.10;;;138.63;;
11039;SDS011;5573;49.592;8.662;2023-07-16T08:03:21;168.75;;;160.15;;
11039;SDS011;5573;49.592;8.662;2023-07-16T08:05:50;189.68;;;179.98;;
11039;SDS011;5573;49.592;8.662;2023-07-16T08:08:35;188.73;;;179.18;;
11039;SDS011;5573;49.592;8.662;2023-07-16T08:11:03;199.27;;;189.05;;
11039;SDS011;5573;49.592;8.662;2023-07-16T08:13:31;194.93;;;185.05;;
11039;SDS011;5573;49.592;8.662;2023-07-16T08:15:59;196.32;;;186.13;;
11039;SDS011;5573;49.592;8.662;2023-07-16T08:18:27;200.40;;;189.98;;
11039;SDS011;5573;49.592;8.662;2023-07-16T08:20:56;204.57;;;194.02;;
11039;SDS011;5573;49.592;8.662;2023-07-16T08:23:24;188.07;;;178.57;;
11039;SDS011;5573;49.592;8.662;2023-07-16T08:25:52;188.90;;;179.10;;
11039;SDS011;5573;49.592;8.662;2023-07-16T08:28:20;178.38;;;169.18;;
11039;SDS011;5573;49.592;8.662;2023-07-16T08:30:48;180.27;;;171.05;;
11039;SDS011;5573;49.592;8.662;2023-07-16T08:33:16;174.57;;;165.52;;
11039;SDS011;5573;49.592;8.662;2023-07-16T08:35:44;158.68;;;150.52;;
11039;SDS011;5573;49.592;8.662;2023-07-16T08:38:13;151.85;;;144.07;;
11039;SDS011;5573;49.592;8.662;2023-07-16T08:40:41;140.93;;;133.82;;
11039;SDS011;5573;49.592;8.662;2023-07-16T08:43:09;138.18;;;131.05;;
11039;SDS011;5573;49.592;8.662;2023-07-16T08:45:39;132.40;;;125.65;;
11039;SDS011;5573;49.592;8.662;2023-07-16T08:48:08;127.57;;;120.93;;
11039;SDS011;5573;49.592;8.662;2023-07-16T08:50:37;140.90;;;133.70;;
11039;SDS011;5573;49.592;8.662;2023-07-16T08:53:05;146.32;;;138.80;;
11039;SDS011;5573;49.592;8.662;2023-07-16T08:55:35;176.65;;;167.57;;
11039;SDS011;5573;49.592;8.662;2023-07-16T08:58:04;192.55;;;182.68;;
11039;SDS011;5573;49.592;8.662;2023-07-16T09:00:32;191.35;;;181.52;;
11039;SDS011;5573;49.592;8.662;2023-07-16T09:03:01;204.88;;;194.38;;
11039;SDS011;5573;49.592;8.662;2023-07-16T09:05:29;221.38;;;210.15;;
11039;SDS011;5573;49.592;8.662;2023-07-16T09:08:06;208.15;;;197.63;;
11039;SDS011;5573;49.592;8.662;2023-07-16T09:10:36;209.57;;;198.98;;
11039;SDS011;5573;49.592;8.662;2023-07-16T09:13:04;195.38;;;185.40;;
11039;SDS011;5573;49.592;8.662;2023-07-16T09:15:32;215.73;;;204.73;;
11039;SDS011;5573;49.592;8.662;2023-07-16T09:18:01;213.70;;;202.80;;
11039;SDS011;5573;49.592;8.662;2023-07-16T09:20:29;222.50;;;211.25;;
11039;SDS011;5573;49.592;8.662;2023-07-16T09:22:58;197.02;;;187.05;;
11039;SDS011;5573;49.592;8.662;2023-07-16T09:25:27;209.98;;;199.30;;
11039;SDS011;5573;49.592;8.662;2023-07-16T09:27:57;207.68;;;197.18;;
11039;SDS011;5573;49.592;8.662;2023-07-16T09:30:30;212.77;;;202.15;;
11039;SDS011;5573;49.592;8.662;2023-07-16T09:33:03;224.25;;;212.93;;
11039;SDS011;5573;49.592;8.662;2023-07-16T09:35:37;218.25;;;207.05;;
11039;SDS011;5573;49.592;8.662;2023-07-16T09:38:05;213.68;;;202.95;;
11039;SDS011;5573;49.592;8.662;2023-07-16T09:40:35;196.65;;;186.73;;
11039;SDS011;5573;49.592;8.662;2023-07-16T09:43:04;173.50;;;164.43;;
11039;SDS011;5573;49.592;8.662;2023-07-16T09:45:33;169.20;;;160.43;;
11039;SDS011;5573;49.592;8.662;2023-07-16T09:48:01;169.52;;;160.73;;
11039;SDS011;5573;49.592;8.662;2023-07-16T09:50:31;174.43;;;165.45;;
11039;SDS011;5573;49.592;8.662;2023-07-16T09:53:01;180.27;;;171.05;;
11039;SDS011;5573;49.592;8.662;2023-07-16T09:55:30;175.25;;;166.35;;
11039;SDS011;5573;49.592;8.662;2023-07-16T09:58:00;162.70;;;154.30;;
11039;SDS011;5573;49.592;8.662;2023-07-16T10:00:32;168.35;;;159.57;;
11039;SDS011;5573;49.592;8.662;2023-07-16T10:03:05;178.27;;;169.07;;
11039;SDS011;5573;49.592;8.662;2023-07-16T10:05:35;182.90;;;173.68;;
11039;SDS011;5573;49.592;8.662;2023-07-16T10:08:04;166.73;;;158.00;;
11039;SDS011;5573;49.592;8.662;2023-07-16T10:10:38;146.05;;;138.48;;
11039;SDS011;5573;49.592;8.662;2023-07-16T10:13:07;161.38;;;152.98;;
11039;SDS011;5573;49.592;8.662;2023-07-16T10:15:36;150.13;;;142.30;;
11039;SDS011;5573;49.592;8.662;2023-07-16T10:18:04;156.27;;;148.18;;
11039;SDS011;5573;49.592;8.662;2023-07-16T10:20:32;156.43;;;148.23;;
11039;SDS011;5573;49.592;8.662;2023-07-16T10:23:09;152.88;;;144.95;;
11039;SDS011;5573;49.592;8.662;2023-07-16T10:25:40;146.48;;;138.93;;
11039;SDS011;5573;49.592;8.662;2023-07-16T10:28:08;160.05;;;151.80;;
11039;SDS011;5573;49.592;8.662;2023-07-16T10:30:37;159.40;;;151.13;;
11039;SDS011;5573;49.592;8.662;2023-07-16T10:33:10;165.13;;;156.63;;
11039;SDS011;5573;49.592;8.662;2023-07-16T10:35:40;155.25;;;147.18;;
11039;SDS011;5573;49.592;8.662;2023-07-16T10:38:09;157.43;;;149.30;;
11039;SDS011;5573;49.592;8.662;2023-07-16T10:40:41;155.38;;;147.35;;
11039;SDS011;5573;49.592;8.662;2023-07-16T10:43:10;159.15;;;151.02;;
11039;SDS011;5573;49.592;8.662;2023-07-16T10:45:39;167.98;;;159.45;;
11039;SDS011;5573;49.592;8.662;2023-07-16T10:48:08;172.35;;;163.60;;
11039;SDS011;5573;49.592;8.662;2023-07-16T10:50:36;188.35;;;178.77;;
11039;SDS011;5573;49.592;8.662;2023-07-16T10:53:05;168.65;;;159.80;;
11039;SDS011;5573;49.592;8.662;2023-07-16T10:55:33;191.15;;;181.52;;
11039;SDS011;5573;49.592;8.662;2023-07-16T10:58:05;187.57;;;178.00;;
11039;SDS011;5573;49.592;8.662;2023-07-16T11:00:36;207.63;;;197.13;;
11039;SDS011;5573;49.592;8.662;2023-07-16T11:03:05;196.55;;;186.65;;
11039;SDS011;5573;49.592;8.662;2023-07-16T11:05:35;199.15;;;189.18;;
11039;SDS011;5573;49.592;8.662;2023-07-16T11:08:03;201.65;;;191.23;;
11039;SDS011;5573;49.592;8.662;2023-07-16T11:10:31;192.93;;;183.20;;
11039;SDS011;5573;49.592;8.662;2023-07-16T11:12:59;199.73;;;189.70;;
11039;SDS011;5573;49.592;8.662;2023-07-16T11:15:30;204.93;;;194.70;;
11039;SDS011;5573;49.592;8.662;2023-07-16T11:17:59;198.98;;;188.82;;
11039;SDS011;5573;49.592;8.662;2023-07-16T11:20:30;202.55;;;192.32;;
11039;SDS011;5573;49.592;8.662;2023-07-16T11:22:58;207.18;;;196.70;;
11039;SDS011;5573;49.592;8.662;2023-07-16T11:25:27;211.20;;;200.65;;
11039;SDS011;5573;49.592;8.662;2023-07-16T11:27:57;196.52;;;186.52;;
11039;SDS011;5573;49.592;8.662;2023-07-16T11:30:25;199.63;;;189.68;;
11039;SDS011;5573;49.592;8.662;2023-07-16T11:32:54;206.02;;;195.55;;
11039;SDS011;5573;49.592;8.662;2023-07-16T11:35:22;202.43;;;192.30;;
11039;SDS011;5573;49.592;8.662;2023-07-16T11:37:51;218.05;;;207.10;;
11039;SDS011;5573;49.592;8.662;2023-07-16T11:40:19;208.25;;;197.63;;
11039;SDS011;5573;49.592;8.662;2023-07-16T11:42:48;210.10;;;199.57;;
11039;SDS011;5573;49.592;8.662;2023-07-16T11:45:17;211.40;;;200.73;;
11039;SDS011;5573;49.592;8.662;2023-07-16T11:47:47;214.82;;;203.98;;
11039;SDS011;5573;49.592;8.662;2023-07-16T11:50:15;226.48;;;214.93;;
11039;SDS011;5573;49.592;8.662;2023-07-16T11:52:51;208.55;;;197.93;;
11039;SDS011;5573;49.592;8.662;2023-07-16T11:55:21;219.30;;;208.27;;
11039;SDS011;5573;49.592;8.662;2023-07-16T11:57:49;242.00;;;229.80;;
11039;SDS011;5573;49.592;8.662;2023-07-16T12:00:17;232.80;;;221.07;;
11039;SDS011;5573;49.592;8.662;2023-07-16T12:02:45;245.32;;;233.13;;
11039;SDS011;5573;49.592;8.662;2023-07-16T12:05:18;263.15;;;249.73;;
11039;SDS011;5573;49.592;8.662;2023-07-16T12:07:57;285.98;;;271.42;;
11039;SDS011;5573;49.592;8.662;2023-07-16T12:10:25;293.17;;;278.20;;
11039;SDS011;5573;49.592;8.662;2023-07-16T12:12:53;295.98;;;280.77;;
11039;SDS011;5573;49.592;8.662;2023-07-16T12:15:21;286.15;;;271.27;;
11039;SDS011;5573;49.592;8.662;2023-07-16T12:17:48;285.45;;;270.77;;
11039;SDS011;5573;49.592;8.662;2023-07-16T12:20:17;298.45;;;282.67;;
11039;SDS011;5573;49.592;8.662;2023-07-16T12:22:44;293.05;;;277.77;;
11039;SDS011;5573;49.592;8.662;2023-07-16T12:25:14;292.65;;;277.27;;
11039;SDS011;5573;49.592;8.662;2023-07-16T12:27:44;292.50;;;277.42;;
11039;SDS011;5573;49.592;8.662;2023-07-16T12:30:12;305.33;;;289.17;;
11039;SDS011;5573;49.592;8.662;2023-07-16T12:32:40;304.95;;;288.80;;
11039;SDS011;5573;49.592;8.662;2023-07-16T12:35:08;312.55;;;295.77;;
11039;SDS011;5573;49.592;8.662;2023-07-16T12:37:36;307.38;;;291.08;;
11039;SDS011;5573;49.592;8.662;2023-07-16T12:40:06;310.35;;;293.52;;
11039;SDS011;5573;49.592;8.662;2023-07-16T12:42:36;314.92;;;298.02;;
11039;SDS011;5573;49.592;8.662;2023-07-16T12:45:04;304.75;;;288.55;;
11039;SDS011;5573;49.592;8.662;2023-07-16T12:47:33;308.05;;;291.50;;
11039;SDS011;5573;49.592;8.662;2023-07-16T12:50:02;309.10;;;292.63;;
11039;SDS011;5573;49.592;8.662;2023-07-16T12:52:30;306.85;;;290.65;;
11039;SDS011;5573;49.592;8.662;2023-07-16T12:54:58;303.80;;;287.52;;
11039;SDS011;5573;49.592;8.662;2023-07-16T12:57:25;298.77;;;282.90;;
11039;SDS011;5573;49.592;8.662;2023-07-16T12:59:55;299.90;;;284.15;;
11039;SDS011;5573;49.592;8.662;2023-07-16T13:02:23;278.40;;;263.80;;
11039;SDS011;5573;49.592;8.662;2023-07-16T13:04:50;278.77;;;264.02;;
11039;SDS011;5573;49.592;8.662;2023-07-16T13:07:18;274.08;;;259.77;;
11039;SDS011;5573;49.592;8.662;2023-07-16T13:09:46;281.88;;;267.00;;
11039;SDS011;5573;49.592;8.662;2023-07-16T13:12:17;250.85;;;237.55;;
11039;SDS011;5573;49.592;8.662;2023-07-16T13:14:45;240.55;;;227.73;;
11039;SDS011;5573;49.592;8.662;2023-07-16T13:17:14;259.70;;;246.02;;
11039;SDS011;5573;49.592;8.662;2023-07-16T13:19:42;275.27;;;260.58;;
11039;SDS011;5573;49.592;8.662;2023-07-16T13:22:13;266.60;;;252.63;;
11039;SDS011;5573;49.592;8.662;2023-07-16T13:24:41;263.95;;;250.02;;
11039;SDS011;5573;49.592;8.662;2023-07-16T13:27:18;275.70;;;261.00;;
11039;SDS011;5573;49.592;8.662;2023-07-16T13:29:47;266.35;;;252.18;;
11039;SDS011;5573;49.592;8.662;2023-07-16T13:32:16;243.50;;;230.75;;
11039;SDS011;5573;49.592;8.662;2023-07-16T13:34:44;239.70;;;227.25;;
11039;SDS011;5573;49.592;8.662;2023-07-16T13:37:12;217.90;;;206.35;;
11039;SDS011;5573;49.592;8.662;2023-07-16T13:39:40;233.40;;;221.10;;
11039;SDS011;5573;49.592;8.662;2023-07-16T13:42:08;240.88;;;228.10;;
11039;SDS011;5573;49.592;8.662;2023-07-16T13:44:48;245.98;;;233.18;;
11039;SDS011;5573;49.592;8.662;2023-07-16T13:47:17;251.35;;;238.02;;
11039;SDS011;5573;49.592;8.662;2023-07-16T13:49:47;228.32;;;216.30;;
11039;SDS011;5573;49.592;8.662;2023-07-16T13:52:15;238.80;;;226.50;;
11039;SDS011;5573;49.592;8.662;2023-07-16T13:54:43;216.85;;;205.70;;
11039;SDS011;5573;49.592;8.662;2023-07-16T13:57:10;200.90;;;190.52;;
11039;SDS011;5573;49.592;8.662;2023-07-16T13:59:38;206.77;;;196.10;;
11039;SDS011;5573;49.592;8.662;2023-07-16T14:02:06;197.82;;;187.73;;
11039;SDS011;5573;49.592;8.662;2023-07-16T14:04:36;188.77;;;179.15;;
11039;SDS011;5573;49.592;8.662;2023-07-16T14:07:04;180.85;;;171.63;;
11039;SDS011;5573;49.592;8.662;2023-07-16T14:09:32;211.57;;;200.88;;
11039;SDS011;5573;49.592;8.662;2023-07-16T14:12:00;196.20;;;186.18;;
11039;SDS011;5573;49.592;8.662;2023-07-16T14:14:28;181.93;;;172.70;;
11039;SDS011;5573;49.592;8.662;2023-07-16T14:16:55;194.82;;;185.02;;
11039;SDS011;5573;49.592;8.662;2023-07-16T14:19:23;191.02;;;181.15;;